Time;durP1;ratioP1;P1;durP2;ratioP2;P2;SDS_P1;SDS_P2;PMS_P1;PMS_P2;Temp;Humidity;BMP_temperature;BMP_pressure;BME280_temperature;BME280_humidity;BME280_pressure;Samples;Min_cycle;Max_cycle;Signal;HPM_P1;HPM_P2
2021/03/16 00:01:23;;;;;;;12.82;7.35;;;3.00;87.80;;;;;;5054015;28;20036;-76
2021/03/16 00:03:49;;;;;;;12.90;7.65;;;3.00;87.70;;;;;;5060579;28;20029;-75
2021/03/16 00:06:17;;;;;;;13.48;7.70;;;3.10;87.70;;;;;;5068728;28;20040;-78
2021/03/16 00:08:43;;;;;;;11.13;8.02;;;3.10;87.40;;;;;;5060585;28;20037;-77
2021/03/16 00:11:09;;;;;;;13.10;7.57;;;3.00;87.10;;;;;;5042591;28;20485;-78
2021/03/16 00:13:35;;;;;;;11.15;7.65;;;3.10;87.30;;;;;;5036411;28;20028;-77
2021/03/16 00:16:01;;;;;;;13.43;6.90;;;3.10;87.20;;;;;;5035487;28;20031;-77
2021/03/16 00:18:26;;;;;;;15.02;8.25;;;3.10;87.30;;;;;;5035666;28;20129;-76
2021/03/16 00:20:53;;;;;;;15.27;7.15;;;3.20;87.40;;;;;;5035914;28;20041;-75
2021/03/16 00:23:19;;;;;;;8.80;7.00;;;3.30;87.20;;;;;;5053460;28;20143;-75
2021/03/16 00:25:44;;;;;;;10.00;7.75;;;3.30;86.90;;;;;;5035593;28;20128;-78
2021/03/16 00:28:10;;;;;;;14.20;7.63;;;3.30;86.70;;;;;;5035677;28;20021;-77
2021/03/16 00:30:36;;;;;;;10.77;7.18;;;3.30;86.70;;;;;;5053366;28;20033;-77
2021/03/16 00:33:01;;;;;;;11.93;7.50;;;3.40;86.50;;;;;;5053268;28;20021;-77
2021/03/16 00:35:27;;;;;;;11.00;7.28;;;3.40;86.40;;;;;;5053014;28;20378;-78
2021/03/16 00:37:53;;;;;;;8.77;6.28;;;3.40;86.20;;;;;;5053152;28;20087;-76
2021/03/16 00:40:18;;;;;;;10.48;6.30;;;3.50;86.20;;;;;;5035303;28;20025;-78
2021/03/16 00:42:45;;;;;;;12.45;6.93;;;3.50;86.00;;;;;;5035234;28;20477;-77
2021/03/16 00:45:11;;;;;;;7.30;6.57;;;3.50;85.60;;;;;;5035299;28;20053;-77
2021/03/16 00:47:37;;;;;;;11.50;6.80;;;3.50;85.40;;;;;;5034960;28;20055;-77
2021/03/16 00:50:09;;;;;;;9.43;5.95;;;3.50;85.00;;;;;;5035269;28;20496;-76
2021/03/16 00:52:34;;;;;;;10.15;6.95;;;3.50;84.90;;;;;;5052999;28;20036;-75
2021/03/16 00:55:00;;;;;;;11.73;6.85;;;3.60;84.70;;;;;;5052945;28;20017;-76
2021/03/16 00:57:26;;;;;;;11.35;6.20;;;3.40;84.50;;;;;;5052870;28;20025;-76
2021/03/16 00:59:51;;;;;;;14.18;7.18;;;3.40;84.30;;;;;;5052828;28;20508;-76
2021/03/16 01:02:19;;;;;;;12.43;6.95;;;3.40;84.20;;;;;;5034955;28;20017;-76
2021/03/16 01:04:45;;;;;;;12.05;7.07;;;3.40;84.30;;;;;;5052875;28;20025;-76
2021/03/16 01:07:11;;;;;;;10.70;7.18;;;3.40;84.20;;;;;;5052606;28;20449;-76
2021/03/16 01:09:37;;;;;;;8.95;6.20;;;3.40;84.40;;;;;;5034798;28;20025;-75
2021/03/16 01:12:03;;;;;;;7.07;6.28;;;3.40;84.20;;;;;;5052499;28;20028;-77
2021/03/16 01:14:28;;;;;;;12.00;6.22;;;3.40;83.70;;;;;;5052499;28;20394;-77
2021/03/16 01:16:54;;;;;;;13.73;6.90;;;3.20;84.10;;;;;;5052463;28;20032;-78
2021/03/16 01:19:20;;;;;;;9.63;6.72;;;3.30;84.60;;;;;;5052355;28;20032;-76
2021/03/16 01:21:45;;;;;;;12.60;7.18;;;3.30;84.80;;;;;;5034752;28;20067;-79
2021/03/16 01:24:11;;;;;;;13.40;7.30;;;3.30;85.50;;;;;;5034779;28;20024;-77
2021/03/16 01:26:36;;;;;;;11.32;6.57;;;3.30;85.10;;;;;;5034458;28;20052;-77
2021/03/16 01:29:04;;;;;;;8.88;6.35;;;3.40;84.50;;;;;;5052474;28;20029;-77
2021/03/16 01:31:29;;;;;;;11.18;6.00;;;3.30;84.30;;;;;;5052237;28;20488;-77
2021/03/16 01:33:55;;;;;;;11.13;6.65;;;3.30;84.40;;;;;;5052242;28;20033;-77
2021/03/16 01:36:20;;;;;;;8.55;5.95;;;3.30;84.50;;;;;;5052408;28;20105;-77
2021/03/16 01:38:46;;;;;;;11.07;6.47;;;3.50;84.50;;;;;;5034427;28;20044;-77
2021/03/16 01:41:12;;;;;;;10.98;6.25;;;3.50;84.00;;;;;;5052374;28;20025;-79
2021/03/16 01:43:37;;;;;;;7.25;5.18;;;3.50;83.40;;;;;;5034265;28;20029;-79
2021/03/16 01:46:04;;;;;;;11.60;6.50;;;3.50;83.60;;;;;;5052357;28;20029;-77
2021/03/16 01:48:32;;;;;;;9.88;6.45;;;3.50;83.70;;;;;;5052089;28;20036;-77
2021/03/16 01:51:04;;;;;;;10.73;5.45;;;3.40;83.40;;;;;;5052329;28;20091;-77
2021/03/16 01:53:30;;;;;;;13.43;6.45;;;3.40;83.70;;;;;;5052250;28;20055;-76
2021/03/16 01:55:57;;;;;;;10.95;6.57;;;3.30;83.80;;;;;;5052195;28;20143;-77
2021/03/16 01:58:23;;;;;;;10.77;6.53;;;3.30;83.70;;;;;;5052104;28;20056;-77
2021/03/16 02:00:49;;;;;;;9.95;5.80;;;3.30;83.80;;;;;;5052125;28;20409;-77
2021/03/16 02:03:15;;;;;;;9.70;6.20;;;3.20;84.00;;;;;;5052068;28;20056;-76
2021/03/16 02:05:42;;;;;;;11.57;6.57;;;3.20;84.20;;;;;;5033827;28;20057;-77
2021/03/16 02:08:27;;;;;;;11.80;6.80;;;3.10;84.50;;;;;;5052098;28;20013;-77
2021/03/16 02:11:21;;;;;;;10.40;6.60;;;3.00;85.20;;;;;;5052065;28;20115;-77
2021/03/16 02:14:12;;;;;;;11.77;6.93;;;2.90;85.90;;;;;;5052069;28;20102;-76
2021/03/16 02:16:46;;;;;;;14.98;7.90;;;3.00;85.90;;;;;;5051920;28;20025;-78
2021/03/16 02:19:52;;;;;;;10.63;6.10;;;3.00;85.90;;;;;;5051610;28;20036;-77
2021/03/16 02:22:19;;;;;;;11.48;6.45;;;3.10;85.80;;;;;;5031313;28;20486;-78
2021/03/16 02:25:03;;;;;;;10.70;6.57;;;3.00;85.80;;;;;;5051714;28;20039;-77
2021/03/16 02:27:40;;;;;;;13.27;7.05;;;3.10;85.70;;;;;;5051669;28;20109;-78
2021/03/16 02:30:08;;;;;;;12.15;7.07;;;3.10;85.70;;;;;;5033922;28;20029;-80
2021/03/16 02:32:36;;;;;;;13.77;6.93;;;3.00;85.70;;;;;;5051591;28;20059;-78
2021/03/16 02:35:04;;;;;;;13.50;6.57;;;3.00;86.00;;;;;;5051445;28;20558;-77
2021/03/16 02:37:35;;;;;;;18.23;8.25;;;2.90;86.40;;;;;;5051538;28;20033;-77
2021/03/16 02:40:03;;;;;;;10.75;6.18;;;2.90;86.70;;;;;;5036046;28;20095;-76
2021/03/16 02:42:33;;;;;;;13.65;6.50;;;2.90;86.80;;;;;;5055361;28;20477;-78
2021/03/16 02:45:00;;;;;;;11.43;7.05;;;2.90;86.60;;;;;;5055382;28;20032;-78
2021/03/16 02:47:26;;;;;;;11.73;6.60;;;2.90;86.60;;;;;;5055245;28;20029;-75
2021/03/16 02:49:52;;;;;;;13.02;6.90;;;3.00;86.50;;;;;;5055420;28;20021;-76
2021/03/16 02:52:18;;;;;;;11.40;7.25;;;3.00;86.70;;;;;;5055213;28;20025;-73
2021/03/16 02:54:46;;;;;;;13.25;7.10;;;2.90;86.80;;;;;;5055101;28;20021;-77
2021/03/16 02:57:13;;;;;;;13.98;7.63;;;2.90;87.00;;;;;;5056572;28;20393;-73
2021/03/16 02:59:41;;;;;;;16.13;7.28;;;2.90;87.10;;;;;;5060779;28;20039;-74
2021/03/16 03:02:10;;;;;;;11.35;7.10;;;2.90;87.20;;;;;;5058687;28;20053;-73
2021/03/16 03:04:36;;;;;;;13.63;6.70;;;3.00;88.00;;;;;;5055278;28;20071;-73
2021/03/16 03:07:03;;;;;;;13.38;6.70;;;3.00;86.90;;;;;;5037316;28;20032;-75
2021/03/16 03:09:29;;;;;;;14.88;7.00;;;3.10;87.00;;;;;;5054802;28;20025;-75
2021/03/16 03:11:54;;;;;;;17.35;7.82;;;3.20;86.60;;;;;;5037178;28;20036;-73
2021/03/16 03:14:20;;;;;;;12.93;6.60;;;3.20;86.40;;;;;;5054755;28;20489;-75
2021/03/16 03:16:46;;;;;;;10.60;5.90;;;3.10;86.10;;;;;;5054748;28;20021;-73
2021/03/16 03:19:11;;;;;;;16.70;6.80;;;3.20;85.80;;;;;;5054578;28;20071;-73
2021/03/16 03:22:05;;;;;;;11.00;5.93;;;3.20;85.70;;;;;;5054625;28;20022;-76
2021/03/16 03:24:36;;;;;;;12.43;6.05;;;3.20;85.60;;;;;;5054560;28;20025;-76
2021/03/16 03:27:18;;;;;;;16.80;6.80;;;3.20;85.50;;;;;;5054393;28;20509;-78
2021/03/16 03:29:45;;;;;;;9.93;5.70;;;3.20;85.40;;;;;;5054322;28;20159;-78
2021/03/16 03:32:11;;;;;;;11.23;6.25;;;3.30;85.20;;;;;;5036217;28;20032;-77
2021/03/16 03:34:39;;;;;;;12.10;6.43;;;3.30;85.20;;;;;;5036112;28;20638;-77
2021/03/16 03:37:06;;;;;;;10.35;5.63;;;3.30;84.90;;;;;;5036410;28;20068;-77
2021/03/16 03:39:34;;;;;;;17.40;7.53;;;3.30;84.80;;;;;;5054273;28;20032;-77
2021/03/16 03:41:59;;;;;;;9.65;6.00;;;3.30;84.40;;;;;;5054265;28;20033;-77
2021/03/16 03:44:27;;;;;;;10.65;6.03;;;3.30;83.80;;;;;;5036119;28;20036;-79
2021/03/16 03:46:53;;;;;;;13.77;6.78;;;3.20;83.80;;;;;;5036312;28;20112;-77
2021/03/16 03:49:20;;;;;;;12.35;6.03;;;3.10;84.10;;;;;;5053993;28;20033;-78
2021/03/16 03:51:47;;;;;;;11.25;6.57;;;3.10;84.10;;;;;;5052722;28;20025;-79
2021/03/16 03:54:15;;;;;;;9.55;5.25;;;3.10;84.00;;;;;;5053899;28;20029;-77
2021/03/16 03:56:41;;;;;;;14.55;5.32;;;3.10;84.10;;;;;;5053773;28;20478;-77
2021/03/16 03:59:07;;;;;;;12.13;6.97;;;3.00;84.30;;;;;;5035824;28;20043;-77
2021/03/16 04:01:34;;;;;;;16.50;7.43;;;3.00;84.70;;;;;;5035622;28;20497;-76
2021/03/16 04:04:01;;;;;;;15.00;6.90;;;2.80;84.90;;;;;;5036175;28;20025;-76
2021/03/16 04:06:28;;;;;;;8.88;6.00;;;2.80;85.10;;;;;;5054186;28;20049;-76
2021/03/16 04:08:54;;;;;;;14.00;6.30;;;2.80;85.20;;;;;;5054290;28;20135;-77
2021/03/16 04:11:24;;;;;;;12.88;6.38;;;2.80;85.60;;;;;;5054180;28;20028;-76
2021/03/16 04:13:51;;;;;;;12.75;6.07;;;2.70;85.80;;;;;;5054444;28;20017;-77
2021/03/16 04:16:18;;;;;;;8.75;5.40;;;2.70;85.60;;;;;;5036494;28;20025;-77
2021/03/16 04:18:44;;;;;;;11.73;6.10;;;2.60;85.80;;;;;;5036387;28;20033;-77
2021/03/16 04:21:10;;;;;;;13.52;5.70;;;2.60;85.90;;;;;;5054123;28;20029;-76
2021/03/16 04:23:37;;;;;;;14.45;6.68;;;2.60;85.80;;;;;;5054108;28;20036;-76
2021/03/16 04:26:03;;;;;;;15.00;6.22;;;2.50;86.10;;;;;;5054080;28;20025;-77
2021/03/16 04:28:28;;;;;;;10.30;5.13;;;2.50;86.20;;;;;;5054043;28;20036;-77
2021/03/16 04:30:54;;;;;;;12.98;5.82;;;2.60;85.70;;;;;;5054585;28;20025;-77
2021/03/16 04:33:20;;;;;;;12.38;5.05;;;2.60;85.50;;;;;;5054393;28;20082;-77
2021/03/16 04:35:46;;;;;;;7.72;4.85;;;2.60;85.10;;;;;;5036218;28;20049;-77
2021/03/16 04:38:13;;;;;;;17.85;5.40;;;2.60;84.60;;;;;;5058342;28;20040;-77
2021/03/16 04:40:40;;;;;;;11.32;4.78;;;2.60;84.30;;;;;;5055299;28;20066;-77
2021/03/16 04:43:07;;;;;;;10.32;5.00;;;2.60;84.00;;;;;;5055797;28;20100;-77
2021/03/16 04:45:32;;;;;;;8.98;4.63;;;2.60;84.20;;;;;;5061193;28;20078;-76
2021/03/16 04:47:58;;;;;;;9.38;4.35;;;2.50;84.30;;;;;;5045086;28;20056;-77
2021/03/16 04:50:24;;;;;;;10.55;4.93;;;2.60;84.30;;;;;;5057002;28;20029;-76
2021/03/16 04:52:51;;;;;;;8.20;4.07;;;2.60;84.50;;;;;;5057912;28;20029;-77
2021/03/16 04:55:17;;;;;;;9.48;5.47;;;2.50;84.00;;;;;;5063804;28;20081;-77
2021/03/16 04:57:43;;;;;;;9.00;4.22;;;2.50;83.80;;;;;;5061791;28;20021;-76
2021/03/16 05:00:10;;;;;;;8.13;3.90;;;2.60;83.30;;;;;;5062676;28;20041;-76
2021/03/16 05:02:35;;;;;;;11.43;5.25;;;2.60;82.90;;;;;;5064527;28;20143;-76
2021/03/16 05:05:02;;;;;;;12.00;4.18;;;2.60;82.50;;;;;;5065109;28;20029;-78
2021/03/16 05:07:27;;;;;;;9.63;4.40;;;2.50;82.90;;;;;;5063270;28;20021;-79
2021/03/16 05:09:53;;;;;;;7.40;3.80;;;2.50;82.60;;;;;;5061402;28;20036;-76
2021/03/16 05:12:19;;;;;;;8.13;3.65;;;2.40;82.80;;;;;;5056749;28;20112;-76
2021/03/16 05:14:45;;;;;;;8.15;3.42;;;2.40;82.80;;;;;;5054984;28;20036;-77
2021/03/16 05:17:11;;;;;;;14.95;4.10;;;2.50;82.80;;;;;;5056003;28;20460;-78
2021/03/16 05:19:37;;;;;;;8.52;3.90;;;2.50;82.30;;;;;;5057601;28;20040;-78
2021/03/16 05:22:03;;;;;;;11.70;3.92;;;2.50;82.00;;;;;;5059767;28;20029;-77
2021/03/16 05:24:28;;;;;;;10.73;3.78;;;2.60;81.80;;;;;;5059004;28;20025;-77
2021/03/16 05:26:54;;;;;;;11.65;3.65;;;2.60;81.60;;;;;;5055524;28;20025;-77
2021/03/16 05:29:20;;;;;;;14.00;4.00;;;2.70;81.20;;;;;;5056149;28;20059;-76
2021/03/16 05:31:45;;;;;;;9.23;3.53;;;2.70;82.10;;;;;;5048787;28;20017;-77
2021/03/16 05:34:12;;;;;;;8.52;3.85;;;2.70;81.70;;;;;;5068195;28;20104;-76
2021/03/16 05:36:37;;;;;;;12.02;3.95;;;2.70;82.00;;;;;;5071348;28;20104;-76
2021/03/16 05:39:03;;;;;;;10.73;3.78;;;2.70;82.10;;;;;;5071166;28;20040;-76
2021/03/16 05:41:30;;;;;;;8.30;3.60;;;2.70;82.10;;;;;;5072420;28;20052;-76
2021/03/16 05:43:55;;;;;;;7.63;3.88;;;2.80;81.90;;;;;;5070016;28;20093;-77
2021/03/16 05:46:22;;;;;;;11.38;4.07;;;2.80;81.60;;;;;;5068465;28;20025;-76
2021/03/16 05:48:50;;;;;;;11.35;4.13;;;2.80;81.50;;;;;;5061525;28;20095;-77
2021/03/16 05:51:17;;;;;;;8.05;3.80;;;2.80;81.40;;;;;;5057957;28;20024;-76
2021/03/16 05:53:49;;;;;;;12.23;4.13;;;2.70;82.20;;;;;;5056881;28;20021;-77
2021/03/16 05:56:15;;;;;;;16.85;4.18;;;2.60;82.30;;;;;;5057614;28;20024;-77
2021/03/16 05:58:42;;;;;;;15.95;3.95;;;2.60;82.60;;;;;;5056182;28;20032;-77
2021/03/16 06:01:09;;;;;;;7.30;3.67;;;2.60;83.10;;;;;;5057755;28;20021;-78
2021/03/16 06:03:35;;;;;;;15.80;4.57;;;2.60;82.90;;;;;;5057749;28;20020;-78
2021/03/16 06:06:01;;;;;;;10.68;4.68;;;2.60;82.90;;;;;;5058071;28;20039;-78
2021/03/16 06:08:26;;;;;;;11.98;4.03;;;2.60;82.90;;;;;;5056636;28;20025;-78
2021/03/16 06:10:52;;;;;;;11.52;4.45;;;2.60;83.00;;;;;;5057870;28;20027;-80
2021/03/16 06:13:18;;;;;;;7.35;3.22;;;2.60;83.10;;;;;;5058545;28;20087;-78
2021/03/16 06:15:43;;;;;;;9.98;3.53;;;2.60;83.10;;;;;;5062242;28;20377;-78
2021/03/16 06:18:23;;;;;;;11.05;3.58;;;2.60;82.90;;;;;;5060576;28;20033;-78
2021/03/16 06:21:00;;;;;;;14.00;4.03;;;2.70;82.80;;;;;;5058869;28;20542;-77
2021/03/16 06:23:31;;;;;;;11.38;3.88;;;2.70;82.50;;;;;;5057502;28;20032;-76
2021/03/16 06:25:57;;;;;;;14.77;4.47;;;2.70;82.80;;;;;;5057758;28;20021;-78
2021/03/16 06:28:33;;;;;;;7.57;4.10;;;2.70;82.10;;;;;;5057047;28;20055;-78
2021/03/16 06:30:59;;;;;;;14.60;4.43;;;2.50;82.70;;;;;;5057596;28;20025;-78
2021/03/16 06:33:28;;;;;;;13.70;4.45;;;2.50;83.20;;;;;;5057745;28;20064;-78
2021/03/16 06:36:01;;;;;;;12.85;4.28;;;2.50;83.60;;;;;;5057441;28;20113;-78
2021/03/16 06:38:28;;;;;;;8.82;4.20;;;2.40;83.80;;;;;;5057441;28;20359;-78
2021/03/16 06:40:54;;;;;;;18.77;4.45;;;2.30;84.20;;;;;;5041065;28;20545;-79
2021/03/16 06:43:23;;;;;;;12.48;3.90;;;2.20;84.80;;;;;;5067291;28;20056;-78
2021/03/16 06:45:53;;;;;;;15.50;3.97;;;2.30;84.80;;;;;;5059039;28;20025;-79
2021/03/16 06:48:23;;;;;;;8.15;3.60;;;2.20;85.20;;;;;;5057859;28;20123;-79
2021/03/16 06:50:50;;;;;;;11.05;4.60;;;2.30;85.30;;;;;;5057996;28;20025;-78
2021/03/16 06:53:22;;;;;;;10.27;4.00;;;2.30;85.50;;;;;;5057985;28;20056;-77
2021/03/16 06:55:55;;;;;;;11.30;4.18;;;2.20;85.50;;;;;;5039481;28;20021;-78
2021/03/16 06:58:27;;;;;;;13.25;4.97;;;2.30;85.30;;;;;;5057820;28;20021;-76
2021/03/16 07:01:24;;;;;;;13.10;4.80;;;2.30;85.40;;;;;;5057074;28;20485;-78
2021/03/16 07:03:50;;;;;;;13.27;5.10;;;2.30;85.20;;;;;;5057100;28;20033;-78
2021/03/16 07:06:21;;;;;;;12.98;5.30;;;2.20;85.70;;;;;;5057562;28;20373;-78
2021/03/16 07:08:48;;;;;;;15.73;5.65;;;2.30;86.20;;;;;;5056841;28;20020;-74
2021/03/16 07:11:20;;;;;;;12.95;4.53;;;2.30;85.80;;;;;;5057158;28;20029;-78
2021/03/16 07:13:46;;;;;;;9.57;4.78;;;2.40;85.20;;;;;;5054985;28;20028;-77
2021/03/16 07:16:13;;;;;;;13.77;5.13;;;2.50;85.10;;;;;;5056140;28;20025;-76
2021/03/16 07:18:44;;;;;;;17.10;5.88;;;2.50;85.10;;;;;;5056216;28;20103;-76
2021/03/16 07:21:11;;;;;;;14.02;5.07;;;2.60;85.00;;;;;;5038940;28;20493;-76
2021/03/16 07:23:48;;;;;;;13.05;4.65;;;2.70;84.80;;;;;;5038233;28;20480;-78
2021/03/16 07:26:15;;;;;;;8.02;4.70;;;2.80;84.50;;;;;;5055367;28;20119;-76
2021/03/16 07:28:44;;;;;;;11.43;4.15;;;2.90;84.30;;;;;;5055137;28;20059;-76
2021/03/16 07:31:10;;;;;;;9.55;4.10;;;3.00;83.70;;;;;;5055670;28;20036;-77
2021/03/16 07:33:36;;;;;;;14.85;6.63;;;3.10;82.90;;;;;;5055339;28;20025;-76
2021/03/16 07:36:02;;;;;;;14.27;6.00;;;3.20;82.30;;;;;;5054783;28;20128;-77
2021/03/16 07:38:28;;;;;;;16.40;7.63;;;3.20;82.30;;;;;;5055123;28;20036;-77
2021/03/16 07:40:54;;;;;;;21.77;10.52;;;3.30;82.10;;;;;;5055110;28;20116;-77
2021/03/16 07:43:34;;;;;;;18.20;5.78;;;3.20;82.30;;;;;;5055284;28;20100;-76
2021/03/16 07:46:17;;;;;;;13.18;5.25;;;3.20;82.30;;;;;;5036614;28;20378;-76
2021/03/16 07:48:46;;;;;;;12.68;4.55;;;3.20;82.40;;;;;;5054744;28;20021;-76
2021/03/16 07:51:17;;;;;;;18.02;5.60;;;3.20;82.30;;;;;;5054567;28;20028;-76
2021/03/16 07:53:53;;;;;;;13.80;4.95;;;3.20;81.90;;;;;;5054205;28;20029;-76
2021/03/16 07:56:26;;;;;;;14.38;5.10;;;3.20;82.00;;;;;;5036856;28;20021;-78
2021/03/16 07:58:52;;;;;;;13.93;4.82;;;3.30;83.00;;;;;;5037420;28;20423;-81
2021/03/16 08:01:18;;;;;;;14.25;3.45;;;3.40;82.80;;;;;;5036439;28;20488;-78
2021/03/16 08:03:44;;;;;;;12.45;4.15;;;3.50;82.00;;;;;;5054751;28;20029;-81
2021/03/16 08:06:23;;;;;;;16.25;4.78;;;3.50;81.20;;;;;;5055739;28;20381;-79
2021/03/16 08:08:49;;;;;;;13.43;4.50;;;3.60;80.70;;;;;;5055517;28;20117;-79
2021/03/16 08:11:15;;;;;;;11.68;4.25;;;3.70;80.40;;;;;;5055716;28;20033;-77
2021/03/16 08:13:41;;;;;;;10.23;4.15;;;3.70;80.00;;;;;;5055097;28;20115;-77
2021/03/16 08:16:12;;;;;;;12.90;4.90;;;3.80;79.50;;;;;;5054304;28;20029;-78
2021/03/16 08:18:38;;;;;;;10.63;4.40;;;3.80;79.20;;;;;;5036537;28;20370;-79
2021/03/16 08:21:11;;;;;;;8.77;4.18;;;3.80;79.10;;;;;;5054252;28;20028;-78
2021/03/16 08:23:38;;;;;;;15.90;4.10;;;3.70;79.60;;;;;;5054299;28;20041;-77
2021/03/16 08:26:07;;;;;;;13.35;4.68;;;3.60;80.20;;;;;;5057193;28;20083;-78
2021/03/16 08:28:34;;;;;;;11.07;4.47;;;3.50;80.10;;;;;;5064671;28;20024;-79
2021/03/16 08:31:02;;;;;;;13.27;4.25;;;3.60;80.30;;;;;;5077178;28;20127;-76
2021/03/16 08:33:29;;;;;;;8.45;4.38;;;3.60;80.00;;;;;;5065548;28;20392;-80
2021/03/16 08:35:56;;;;;;;12.35;4.75;;;3.50;79.80;;;;;;5038270;28;20052;-79
2021/03/16 08:38:21;;;;;;;9.32;3.85;;;3.40;80.20;;;;;;5055578;28;20120;-78
2021/03/16 08:40:49;;;;;;;9.45;4.28;;;3.40;80.30;;;;;;5054883;28;20532;-77
2021/03/16 08:43:16;;;;;;;9.38;4.05;;;3.20;81.60;;;;;;5053980;28;20013;-78
2021/03/16 08:45:44;;;;;;;19.20;5.07;;;3.30;82.20;;;;;;5053942;28;20116;-75
2021/03/16 08:48:10;;;;;;;9.85;4.07;;;3.90;88.50;;;;;;5053286;28;20023;-76
2021/03/16 08:50:36;;;;;;;9.85;4.25;;;4.60;87.60;;;;;;5053495;28;20029;-76
2021/03/16 08:53:03;;;;;;;8.20;3.45;;;5.40;86.40;;;;;;5053542;28;20024;-76
2021/03/16 08:55:29;;;;;;;7.85;2.97;;;6.00;82.00;;;;;;5053549;28;20445;-76
2021/03/16 08:57:56;;;;;;;5.18;2.65;;;6.20;75.50;;;;;;5053155;28;20093;-76
2021/03/16 09:00:26;;;;;;;9.27;3.83;;;6.30;74.10;;;;;;5053133;28;20051;-75
2021/03/16 09:02:54;;;;;;;8.30;2.60;;;6.20;72.70;;;;;;5053071;28;20079;-75
2021/03/16 09:05:25;;;;;;;8.13;2.92;;;6.20;72.30;;;;;;5053031;28;20025;-75
2021/03/16 09:07:55;;;;;;;10.77;2.92;;;6.40;71.10;;;;;;5053037;28;20028;-75
2021/03/16 09:10:21;;;;;;;12.52;3.38;;;6.80;70.60;;;;;;5052799;28;20472;-75
2021/03/16 09:12:47;;;;;;;7.82;3.13;;;6.70;68.50;;;;;;5052860;28;20519;-74
2021/03/16 09:15:17;;;;;;;9.52;3.10;;;6.50;68.40;;;;;;5052809;28;20040;-77
2021/03/16 09:17:45;;;;;;;6.60;2.70;;;6.50;69.80;;;;;;5052837;28;20021;-77
2021/03/16 09:20:20;;;;;;;9.77;3.15;;;6.20;67.40;;;;;;5052710;28;20086;-79
2021/03/16 09:22:57;;;;;;;13.95;3.95;;;5.30;70.00;;;;;;5053055;28;20036;-79
2021/03/16 09:25:43;;;;;;;15.85;3.67;;;4.90;72.00;;;;;;5052726;28;20033;-78
2021/03/16 09:28:12;;;;;;;6.13;3.08;;;4.60;73.60;;;;;;5034944;28;20025;-78
2021/03/16 09:30:54;;;;;;;10.75;3.60;;;4.50;74.50;;;;;;5034727;28;20377;-77
2021/03/16 09:33:22;;;;;;;9.85;3.58;;;4.30;75.60;;;;;;5034843;28;20354;-77
2021/03/16 09:35:59;;;;;;;12.55;3.28;;;4.30;75.80;;;;;;5052642;28;20044;-78
2021/03/16 09:38:25;;;;;;;7.85;3.13;;;4.40;75.90;;;;;;5052607;28;20017;-77
2021/03/16 09:40:52;;;;;;;12.57;3.58;;;4.40;75.50;;;;;;5052791;28;20362;-77
2021/03/16 09:43:26;;;;;;;8.10;3.15;;;4.40;75.40;;;;;;5052517;28;20491;-76
2021/03/16 09:46:06;;;;;;;10.85;3.25;;;4.20;76.00;;;;;;5052729;28;20017;-77
2021/03/16 09:48:32;;;;;;;12.75;3.28;;;4.20;76.10;;;;;;5054258;28;20029;-77
2021/03/16 09:50:59;;;;;;;12.90;4.00;;;4.30;76.40;;;;;;5056617;28;20028;-78
2021/03/16 09:53:25;;;;;;;8.68;3.13;;;4.40;76.90;;;;;;5038913;28;20539;-76
2021/03/16 09:55:59;;;;;;;8.63;3.00;;;4.40;76.70;;;;;;5056644;28;20025;-77
2021/03/16 09:58:26;;;;;;;13.55;3.92;;;4.50;76.50;;;;;;5056555;28;20049;-77
2021/03/16 10:00:53;;;;;;;8.63;3.42;;;4.40;76.10;;;;;;5056472;28;20040;-77
2021/03/16 10:03:20;;;;;;;13.88;3.30;;;4.50;75.80;;;;;;5056193;28;20027;-76
2021/03/16 10:05:49;;;;;;;11.90;3.53;;;4.50;76.10;;;;;;5055937;28;20159;-77
2021/03/16 10:08:25;;;;;;;10.07;2.83;;;4.20;76.10;;;;;;5056185;28;20408;-75
2021/03/16 10:10:52;;;;;;;9.55;3.00;;;4.30;76.50;;;;;;5056109;28;20074;-75
2021/03/16 10:13:31;;;;;;;8.98;2.55;;;4.20;76.70;;;;;;5055962;28;20045;-74
2021/03/16 10:16:07;;;;;;;8.80;2.90;;;4.10;76.00;;;;;;5055996;28;20037;-78
2021/03/16 10:18:41;;;;;;;12.02;3.60;;;3.90;77.00;;;;;;5038320;28;20028;-77
2021/03/16 10:21:07;;;;;;;8.05;3.05;;;4.00;77.30;;;;;;5038173;28;20033;-77
2021/03/16 10:23:32;;;;;;;7.78;3.45;;;3.90;77.70;;;;;;5055949;28;20082;-79
2021/03/16 10:26:04;;;;;;;10.48;3.47;;;3.90;77.50;;;;;;5055960;28;20428;-80
2021/03/16 10:28:34;;;;;;;6.15;3.03;;;3.70;77.60;;;;;;5055806;28;20417;-78
2021/03/16 10:31:10;;;;;;;11.35;3.67;;;3.80;77.40;;;;;;5037933;28;20036;-78
2021/03/16 10:33:36;;;;;;;17.55;3.97;;;3.80;77.60;;;;;;5055622;28;20037;-78
2021/03/16 10:36:01;;;;;;;8.95;3.47;;;3.90;76.70;;;;;;5037763;28;20052;-76
2021/03/16 10:38:27;;;;;;;9.75;3.35;;;3.90;77.20;;;;;;5055647;28;20020;-79
2021/03/16 10:40:53;;;;;;;7.95;2.95;;;4.00;77.60;;;;;;5054574;28;20381;-79
2021/03/16 10:43:19;;;;;;;16.27;3.63;;;4.10;77.00;;;;;;5054698;28;20025;-77
2021/03/16 10:45:44;;;;;;;13.80;3.83;;;4.30;76.10;;;;;;5053444;28;20036;-78
2021/03/16 10:48:10;;;;;;;14.70;4.35;;;4.20;76.20;;;;;;5028718;28;20493;-78
2021/03/16 10:50:35;;;;;;;10.02;3.17;;;4.20;76.20;;;;;;5036096;28;20469;-78
2021/03/16 10:53:01;;;;;;;14.65;3.30;;;4.30;76.20;;;;;;5055569;28;20103;-76
2021/03/16 10:55:26;;;;;;;11.68;3.85;;;4.50;75.40;;;;;;5055205;28;20040;-76
2021/03/16 10:57:52;;;;;;;9.48;3.05;;;4.60;74.40;;;;;;5055328;28;20032;-76
2021/03/16 11:00:18;;;;;;;13.55;4.90;;;4.60;74.90;;;;;;5036451;28;20338;-77
2021/03/16 11:02:45;;;;;;;13.18;3.65;;;4.60;75.10;;;;;;5055172;28;20108;-77
2021/03/16 11:05:11;;;;;;;6.47;2.63;;;4.60;74.10;;;;;;5054968;28;20029;-76
2021/03/16 11:07:36;;;;;;;7.55;2.88;;;4.70;74.10;;;;;;5036949;28;20123;-76
2021/03/16 11:10:04;;;;;;;10.25;3.95;;;4.70;73.40;;;;;;5054662;28;20032;-77
2021/03/16 11:12:30;;;;;;;8.88;2.83;;;4.50;73.30;;;;;;5036482;28;20178;-77
2021/03/16 11:14:55;;;;;;;11.93;3.42;;;4.60;72.40;;;;;;5054597;28;20079;-76
2021/03/16 11:17:22;;;;;;;12.35;3.15;;;4.50;71.90;;;;;;5054075;28;20025;-76
2021/03/16 11:19:48;;;;;;;9.27;2.75;;;4.60;70.90;;;;;;5054590;28;20032;-73
2021/03/16 11:22:13;;;;;;;11.27;2.85;;;4.50;71.00;;;;;;5046432;28;20021;-77
2021/03/16 11:24:39;;;;;;;8.35;3.05;;;4.70;72.30;;;;;;5038996;28;20086;-76
2021/03/16 11:27:05;;;;;;;9.90;3.25;;;4.70;72.10;;;;;;5037682;28;20028;-77
2021/03/16 11:29:30;;;;;;;12.43;3.35;;;4.80;72.90;;;;;;5055156;28;20035;-76
2021/03/16 11:31:56;;;;;;;8.55;2.83;;;4.70;72.30;;;;;;5055071;28;20029;-74
2021/03/16 11:34:22;;;;;;;14.88;3.25;;;4.90;71.20;;;;;;5054509;28;20485;-77
2021/03/16 11:36:47;;;;;;;9.75;3.25;;;4.90;70.50;;;;;;5055114;28;20024;-75
2021/03/16 11:39:13;;;;;;;7.65;3.13;;;5.00;69.80;;;;;;5054565;28;20028;-76
2021/03/16 11:41:39;;;;;;;13.32;3.90;;;4.90;69.60;;;;;;5054402;28;20047;-73
2021/03/16 11:44:05;;;;;;;11.38;3.15;;;4.70;69.60;;;;;;5054268;28;20493;-76
2021/03/16 11:46:31;;;;;;;10.30;3.05;;;4.80;70.40;;;;;;5054169;28;20159;-75
2021/03/16 11:48:56;;;;;;;7.95;3.00;;;5.00;70.40;;;;;;5054297;28;20029;-73
2021/03/16 11:51:22;;;;;;;11.10;3.03;;;5.00;69.90;;;;;;5054356;28;20037;-76
2021/03/16 11:53:47;;;;;;;7.97;3.15;;;4.80;69.10;;;;;;5054922;28;20033;-76
2021/03/16 11:56:16;;;;;;;9.05;3.03;;;4.90;69.20;;;;;;5054579;28;20469;-76
2021/03/16 11:58:41;;;;;;;8.68;3.33;;;4.80;68.10;;;;;;5054485;28;20112;-74
2021/03/16 12:01:07;;;;;;;9.50;3.08;;;4.70;69.60;;;;;;5057612;28;20045;-78
2021/03/16 12:03:32;;;;;;;6.22;3.10;;;4.70;69.30;;;;;;5066410;28;20060;-77
2021/03/16 12:05:58;;;;;;;12.93;3.50;;;4.90;69.80;;;;;;5053997;28;20028;-77
2021/03/16 12:08:23;;;;;;;8.50;2.97;;;4.90;69.40;;;;;;5054108;28;20048;-76
2021/03/16 12:10:49;;;;;;;10.95;3.13;;;5.00;69.00;;;;;;5036176;28;20032;-76
2021/03/16 12:13:15;;;;;;;7.97;2.83;;;5.00;68.30;;;;;;5053124;28;20399;-77
2021/03/16 12:15:41;;;;;;;11.00;3.80;;;4.90;68.20;;;;;;5053921;28;20056;-76
2021/03/16 12:18:07;;;;;;;6.97;3.10;;;4.80;68.50;;;;;;5053758;28;20053;-77
2021/03/16 12:20:32;;;;;;;9.00;2.42;;;4.90;67.40;;;;;;5053963;28;20095;-77
2021/03/16 12:22:58;;;;;;;8.55;2.58;;;4.70;67.40;;;;;;5036138;28;20021;-77
2021/03/16 12:25:23;;;;;;;11.48;2.70;;;4.70;67.50;;;;;;5053917;28;20024;-76
2021/03/16 12:27:50;;;;;;;8.75;3.22;;;4.70;68.20;;;;;;5036121;28;20432;-78
2021/03/16 12:30:16;;;;;;;11.00;2.78;;;4.80;68.60;;;;;;5053829;28;20032;-77
2021/03/16 12:32:42;;;;;;;9.07;2.75;;;4.90;69.40;;;;;;5053674;28;20035;-77
2021/03/16 12:35:09;;;;;;;12.25;3.25;;;4.80;69.50;;;;;;5053513;28;20041;-76
2021/03/16 12:37:35;;;;;;;11.88;3.05;;;4.80;69.80;;;;;;5053597;28;20027;-77
2021/03/16 12:40:03;;;;;;;9.90;2.40;;;5.00;68.90;;;;;;5053664;28;20111;-79
2021/03/16 12:42:30;;;;;;;8.70;2.63;;;5.20;68.10;;;;;;5053190;28;20632;-79
2021/03/16 12:44:55;;;;;;;10.25;2.85;;;5.40;66.90;;;;;;5053355;28;20111;-76
2021/03/16 12:47:21;;;;;;;9.10;2.47;;;5.70;65.80;;;;;;5053048;28;20053;-76
2021/03/16 12:49:47;;;;;;;6.30;2.33;;;5.70;65.00;;;;;;5053305;28;20021;-76
2021/03/16 12:52:12;;;;;;;4.47;2.38;;;5.80;64.80;;;;;;5053224;28;20469;-77
2021/03/16 12:54:38;;;;;;;13.00;3.05;;;5.80;63.60;;;;;;5051807;28;20386;-76